Nearby METAR Reports

 

KTTN - Trenton, New Jersey, USA
Distance from station: W 8mi, 12km
Updated: Sun, 25-Feb-2024 12:53pm EST
Clear
Clear
 Wind from W
Wind: W 7 mph , 11 km/h
Temperature: 36°F , 2°C
Wind Chill: 30°F , -1°C
Dew Point: 12°F , -11°C
Humidity: 38%
Barometer: 30.14 inHg , 1020.7 hPa
Clouds: Clear
Visibility: 10 miles , 16 km
2024/02/25 17:53 KTTN 251753Z 28006KT 10SM CLR 02/M11 A3014 RMK AO2 SLP202 T00221106 10022 21078 57020
KWRI - Wrightst/Mcguire, New Jersey, USA
Distance from station: SSE 18mi, 29km
Updated: Sun, 25-Feb-2024 12:55pm EST
Clear
Clear
 Wind from calm
Wind: Calm
Temperature: 37°F , 3°C
Dew Point: 7°F , -14°C
Humidity: 28%
Barometer: 30.14 inHg , 1020.7 hPa
Clouds: Clear
Visibility: 10 miles , 16 km
2024/02/25 17:55 KWRI 251755Z AUTO 00000KT 10SM CLR 03/M14 A3014 RMK AO2 SLP207 T00261137 10027 21064 57021
KPNE - Philadelphia/Ne, Pennsylvania, USA
Distance from station: SW 22mi, 35km
Updated: Sun, 25-Feb-2024 12:54pm EST
Clear
Clear
 Wind from SW
Wind: SW 7 mph , 11 km/h
Temperature: 37°F , 3°C
Wind Chill: 32°F , 0°C
Dew Point: 10°F , -12°C
Humidity: 33%
Barometer: 30.16 inHg , 1021.3 hPa
Clouds: Clear
Visibility: 10 miles , 16 km
2024/02/25 17:54 KPNE 251754Z 23006KT 10SM CLR 03/M12 A3016 RMK AO2 SLP215 T00331117 10039 21056 58020
 
KDYL - Doylestown, Pennsylvania, USA
Distance from station: W 24mi, 38km
Updated: Sun, 25-Feb-2024 12:54pm EST
Clear
Clear
 Wind from SW
Wind: SW 7 mph , 11 km/h
Temperature: 37°F , 3°C
Wind Chill: 32°F , 0°C
Dew Point: 12°F , -11°C
Humidity: 35%
Barometer: 30.12 inHg , 1020 hPa
Clouds: Clear
Visibility: 10 miles , 16 km
2024/02/25 17:54 KDYL 251754Z AUTO 22006KT 10SM CLR 03/M11 A3012 RMK AO2 SLP209 T00331111 10033 21078 58018
KSMQ - Somerville, New Jersey, USA
Distance from station: 0 24mi, 39km
Updated: Sun, 25-Feb-2024 12:53pm EST
Clear
Clear
 Wind from varies
Wind: varies 5 mph , 7 km/h
Temperature: 37°F , 3°C
Wind Chill: 33°F , 1°C
Dew Point: 14°F , -10°C
Humidity: 38%
Barometer: 30.13 inHg , 1020.3 hPa
Clouds: Clear
Visibility: 10 miles , 16 km
2024/02/25 17:53 KSMQ 251753Z AUTO VRB04KT 10SM CLR 03/M10 A3013 RMK AO2 SLP204 T00281100 10033 21067 58019
KVAY - Mount Holly, New Jersey, USA
Distance from station: SSW 24mi, 39km
Updated: Sun, 25-Feb-2024 12:54pm EST
Clear
Clear
 Wind from varies
Wind: varies 3 mph , 6 km/h
Temperature: 37°F , 3°C
Dew Point: 12°F , -11°C
Humidity: 35%
Barometer: 30.15 inHg , 1021 hPa
Clouds: Clear
Visibility: 10 miles , 16 km
2024/02/25 17:54 KVAY 251754Z AUTO VRB03KT 10SM CLR 03/M11 A3015 RMK AO2 SLP210 T00331106 10033 21078 58022 PWINO $
 
KNEL - Lakehurst Nas, New Jersey, USA
Distance from station: SE 25mi, 40km
Updated: Thu, 22-Feb-2024 5:00pm EST
NOT Current
Overcast
Overcast
 Wind from SSE
Wind: SSE 9 mph , 15 km/h
Temperature: 43°F , 6°C
Wind Chill: 38°F , 3°C
Dew Point: 34°F , 1°C
Humidity: 71%
Barometer: 29.81 inHg , 1009.5 hPa
Clouds: Overcast
Cloud details: Mostly cloudy 9500 ft
Overcast 12000 ft
2024/02/22 22:00 KNEL 222200Z 15008KT BKN095 OVC120 06/01 A2981 RMK SLP095 TOO560006 PNO $ RTX FIBI
KBLM - Belmar/Farmdale, New Jersey, USA
Distance from station: ESE 30mi, 48km
Updated: Sun, 25-Feb-2024 12:56pm EST

 Wind from SW
Wind: SW 5 mph , 7 km/h
Temperature: 37°F , 3°C
Wind Chill: 33°F , 1°C
Dew Point: 10°F , -12°C
Humidity: 33%
Barometer: 30.15 inHg , 1021 hPa
Visibility: 10 miles , 16 km
2024/02/25 17:56 KBLM 251756Z AUTO 23004KT 10SM 03/M12 A3015 RMK AO2 SLP211 T00331117 10039 21061 58020 $
KMJX - Toms River, New Jersey, USA
Distance from station: SE 30mi, 49km
Updated: Sun, 25-Feb-2024 12:56pm EST
Clear
Clear
 Wind from W
Wind: W 9 mph , 15 km/h
Temperature: 41°F , 5°C
Wind Chill: 35°F , 2°C
Dew Point: 10°F , -12°C
Humidity: 28%
Barometer: 30.15 inHg , 1021 hPa
Clouds: Clear
Visibility: 10 miles , 16 km
2024/02/25 17:56 KMJX 251756Z AUTO 26008KT 10SM CLR 05/M12 A3015 RMK AO2 SLP212 T00501117 10050 21078 58022
 
KLOM - Philly Wings F, Pennsylvania, USA
Distance from station: WSW 33mi, 52km
Updated: Sun, 25-Feb-2024 1:35pm EST
Clear
Clear
 Wind from SSW
Wind: SSW 5 mph , 7 km/h
Temperature: 39°F , 4°C
Wind Chill: 35°F , 2°C
Dew Point: 14°F , -10°C
Humidity: 36%
Barometer: 30.13 inHg , 1020.3 hPa
Clouds: Clear
Visibility: 10 miles , 16 km
2024/02/25 18:35 KLOM 251835Z AUTO 21004KT 10SM CLR 04/M10 A3013 RMK AO2 T00361101
KCKZ - Perkasie, Pennsylvania, USA
Distance from station: WNW 33mi, 53km
Updated: Sun, 25-Feb-2024 1:35pm EST
Clear
Clear
 Wind from SSW
Wind: SSW 6 mph , 9 km/h, Gust: 12 mph , 19 km/h
Temperature: 37°F , 3°C
Wind Chill: 32°F , 0°C
Dew Point: 12°F , -11°C
Humidity: 35%
Barometer: 30.11 inHg , 1019.6 hPa
Clouds: Clear
Visibility: 10 miles , 16 km
2024/02/25 18:35 KCKZ 251835Z AUTO 21005G10KT 10SM CLR 03/M11 A3011 RMK AO2
KLDJ - Linden, New Jersey, USA
Distance from station: NE 33mi, 53km
Updated: Sun, 25-Feb-2024 1:35pm EST
Clear
Clear
 Wind from W
Wind: W 7 mph , 11 km/h
Temperature: 37°F , 3°C
Wind Chill: 32°F , 0°C
Dew Point: 9°F , -13°C
Humidity: 30%
Barometer: 30.13 inHg , 1020.3 hPa
Clouds: Clear
Visibility: 10 miles , 16 km
2024/02/25 18:35 KLDJ 251835Z AUTO 28006KT 10SM CLR 03/M13 A3013 RMK AO2 T00321132
 
KMMU - Morristown Muni, New Jersey, USA
Distance from station: NNE 38mi, 62km
Updated: Sun, 25-Feb-2024 1:45pm EST
Clear
Clear
 Wind from SSW
Wind: SSW 6 mph , 9 km/h
Temperature: 37°F , 3°C
Wind Chill: 32°F , 0°C
Dew Point: 12°F , -11°C
Humidity: 35%
Barometer: 30.11 inHg , 1019.6 hPa
Clouds: Clear
Visibility: 10 miles , 16 km
2024/02/25 18:45 KMMU 251845Z 20005KT 10SM SKC 03/M11 A3011
KEWR - Newark, New Jersey, USA
Distance from station: NE 39mi, 63km
Updated: Sun, 25-Feb-2024 12:51pm EST
Few Clouds
Few Clouds
 Wind from varies
Wind: varies 6 mph , 9 km/h
Temperature: 37°F , 3°C
Wind Chill: 32°F , 0°C
Dew Point: 10°F , -12°C
Humidity: 33%
Barometer: 30.13 inHg , 1020.3 hPa
Clouds: Few Clouds
Visibility: 10 miles , 16 km
Cloud details: Few Clouds 20000 ft
2024/02/25 17:51 KEWR 251751Z VRB05KT 10SM FEW200 03/M12 A3013 RMK AO2 SLP203 T00281122 10039 21050 58024 $
KUKT - Quakertown Arp, Pennsylvania, USA
Distance from station: WNW 39mi, 63km
Updated: Sun, 25-Feb-2024 1:35pm EST
Clear
Clear
 Wind from varies
Wind: varies 7 mph , 11 km/h
Temperature: 39°F , 4°C
Wind Chill: 34°F , 1°C
Dew Point: 12°F , -11°C
Humidity: 33%
Barometer: 30.11 inHg , 1019.6 hPa
Clouds: Clear
Visibility: 10 miles , 16 km
2024/02/25 18:35 KUKT 251835Z AUTO VRB06KT 10SM CLR 04/M11 A3011 RMK AO2
 
KPHL - Philadelphia, Pennsylvania, USA
Distance from station: SW 40mi, 65km
Updated: Sun, 25-Feb-2024 12:54pm EST
Partly cloudy
Partly cloudy
 Wind from WSW
Wind: WSW 8 mph , 13 km/h
Temperature: 37°F , 3°C
Wind Chill: 31°F , -1°C
Dew Point: 10°F , -12°C
Humidity: 33%
Barometer: 30.17 inHg , 1021.7 hPa
Clouds: Partly cloudy
Visibility: 10 miles , 16 km
Cloud details: Partly cloudy 25000 ft
2024/02/25 17:54 KPHL 251754Z 24007KT 10SM SCT250 03/M12 A3017 RMK AO2 SLP214 T00281122 10028 21044 56019
KJRB - Manhattan/Dwntwn, New York, USA
Distance from station: NE 46mi, 74km
Updated: Sun, 25-Feb-2024 12:56pm EST
Clear
Clear
 Wind from calm
Wind: Calm
Temperature: 37°F , 3°C
Dew Point: 10°F , -12°C
Humidity: 33%
Barometer: 30.15 inHg , 1021 hPa
Clouds: Clear
Visibility: 10 miles , 16 km
2024/02/25 17:56 KJRB 251756Z AUTO 00000KT 10SM CLR 03/M12 A3015 RMK AO2 SLP211 6//// T00331117 10033 21039 58021 PNO $
KPTW - Pottstown, Pennsylvania, USA
Distance from station: W 46mi, 74km
Updated: Sun, 25-Feb-2024 12:54pm EST
Clear
Clear
 Wind from varies
Wind: varies 3 mph , 6 km/h
Temperature: 36°F , 2°C
Dew Point: 12°F , -11°C
Humidity: 38%
Barometer: 30.15 inHg , 1021 hPa
Clouds: Clear
Visibility: 10 miles , 16 km
2024/02/25 17:54 KPTW 251754Z AUTO VRB03KT 10SM CLR 02/M11 A3015 RMK AO2 SLP209 T00221111 10028 21083 56021
 
KCDW - Caldwell, New Jersey, USA
Distance from station: NNE 47mi, 76km
Updated: Sun, 25-Feb-2024 12:53pm EST
Clear
Clear
 Wind from WSW
Wind: WSW 5 mph , 7 km/h
Temperature: 36°F , 2°C
Wind Chill: 32°F , 0°C
Dew Point: 7°F , -14°C
Humidity: 30%
Barometer: 30.13 inHg , 1020.3 hPa
Clouds: Clear
Visibility: 10 miles , 16 km
2024/02/25 17:53 KCDW 251753Z 25004KT 10SM CLR 02/M14 A3013 RMK AO2 SLP211 T00221144 10022 21067 58022
KXLL - Allentown Queen, Pennsylvania, USA
Distance from station: WNW 47mi, 76km
Updated: Sun, 25-Feb-2024 1:35pm EST
Clear
Clear
 Wind from WSW
Wind: WSW 6 mph , 9 km/h
Temperature: 37°F , 3°C
Wind Chill: 32°F , 0°C
Dew Point: 14°F , -10°C
Humidity: 38%
Barometer: 30.12 inHg , 1020 hPa
Clouds: Clear
Visibility: 10 miles , 16 km
2024/02/25 18:35 KXLL 251835Z AUTO 25005KT 10SM CLR 03/M10 A3012 RMK AO2